createdAt,value
2023-02-14T00:00:56.777Z,1031.41
2023-02-14T00:01:56.425Z,1031.40
2023-02-14T00:02:56.509Z,1031.39
2023-02-14T00:03:56.432Z,1031.41
2023-02-14T00:04:56.506Z,1031.39
2023-02-14T00:05:56.445Z,1031.38
2023-02-14T00:06:56.452Z,1031.39
2023-02-14T00:07:56.460Z,1031.42
2023-02-14T00:08:56.528Z,1031.42
2023-02-14T00:09:56.491Z,1031.40
2023-02-14T00:10:56.813Z,1031.43
2023-02-14T00:11:56.488Z,1031.39
2023-02-14T00:12:56.469Z,1031.43
2023-02-14T00:13:56.484Z,1031.42
2023-02-14T00:14:56.489Z,1031.40
2023-02-14T00:15:56.570Z,1031.44
2023-02-14T00:16:56.486Z,1031.41
2023-02-14T00:17:56.493Z,1031.44
2023-02-14T00:18:56.498Z,1031.40
2023-02-14T00:19:56.499Z,1031.40
2023-02-14T00:20:56.801Z,1031.39
2023-02-14T00:21:56.515Z,1031.38
2023-02-14T00:22:56.516Z,1031.37
2023-02-14T00:23:56.516Z,1031.36
2023-02-14T00:24:56.558Z,1031.35
2023-02-14T00:25:56.527Z,1031.34
2023-02-14T00:26:56.538Z,1031.30
2023-02-14T00:27:56.532Z,1031.31
2023-02-14T00:28:56.537Z,1031.34
2023-02-14T00:29:56.574Z,1031.31
2023-02-14T00:30:56.732Z,1031.30
2023-02-14T00:31:56.599Z,1031.28
2023-02-14T00:32:56.560Z,1031.29
2023-02-14T00:33:56.568Z,1031.27
2023-02-14T00:34:56.569Z,1031.29
2023-02-14T00:35:56.568Z,1031.29
2023-02-14T00:36:56.578Z,1031.31
2023-02-14T00:38:02.841Z,1031.32
2023-02-14T00:38:56.581Z,1031.28
2023-02-14T00:39:56.585Z,1031.29
2023-02-14T00:40:56.826Z,1031.26
2023-02-14T00:41:56.590Z,1031.26
2023-02-14T00:42:56.590Z,1031.23
2023-02-14T00:43:56.603Z,1031.23
2023-02-14T00:44:56.602Z,1031.25
2023-02-14T00:45:56.783Z,1031.20
2023-02-14T00:46:56.606Z,1031.22
2023-02-14T00:47:56.612Z,1031.19
2023-02-14T00:48:56.616Z,1031.20
2023-02-14T00:49:56.620Z,1031.18
2023-02-14T00:50:57.001Z,1031.18
2023-02-14T00:51:56.629Z,1031.21
2023-02-14T00:52:56.631Z,1031.25
2023-02-14T00:53:56.642Z,1031.27
2023-02-14T00:54:56.640Z,1031.29
2023-02-14T00:55:56.644Z,1031.30
2023-02-14T00:56:56.672Z,1031.29
2023-02-14T00:57:56.654Z,1031.28
2023-02-14T00:58:56.666Z,1031.32
2023-02-14T00:59:56.676Z,1031.31
2023-02-14T01:00:57.137Z,1031.26
2023-02-14T01:01:56.677Z,1031.24
2023-02-14T01:02:56.724Z,1031.27
2023-02-14T01:03:56.692Z,1031.25
2023-02-14T01:04:56.689Z,1031.26
2023-02-14T01:05:56.708Z,1031.24
2023-02-14T01:06:56.691Z,1031.26
2023-02-14T01:07:56.693Z,1031.28
2023-02-14T01:08:56.705Z,1031.27
2023-02-14T01:09:56.699Z,1031.26
2023-02-14T01:10:57.002Z,1031.29
2023-02-14T01:11:56.727Z,1031.31
2023-02-14T01:12:56.741Z,1031.27
2023-02-14T01:13:56.717Z,1031.28
2023-02-14T01:14:56.725Z,1031.27
2023-02-14T01:15:56.727Z,1031.24
2023-02-14T01:16:56.728Z,1031.22
2023-02-14T01:17:56.735Z,1031.22
2023-02-14T01:18:56.737Z,1031.24
2023-02-14T01:19:56.745Z,1031.24
2023-02-14T01:20:56.886Z,1031.25
2023-02-14T01:21:56.748Z,1031.21
2023-02-14T01:22:56.752Z,1031.21
2023-02-14T01:23:56.757Z,1031.17
2023-02-14T01:24:56.761Z,1031.17
2023-02-14T01:25:56.770Z,1031.18
2023-02-14T01:26:56.768Z,1031.18
2023-02-14T01:27:56.774Z,1031.20
2023-02-14T01:28:56.808Z,1031.20
2023-02-14T01:29:56.851Z,1031.14
2023-02-14T01:30:56.883Z,1031.15
2023-02-14T01:31:56.846Z,1031.14
2023-02-14T01:32:56.796Z,1031.15
2023-02-14T01:33:56.817Z,1031.17
2023-02-14T01:34:56.800Z,1031.12
2023-02-14T01:35:56.808Z,1031.12
2023-02-14T01:36:56.824Z,1031.11
2023-02-14T01:37:56.813Z,1031.14
2023-02-14T01:38:56.820Z,1031.12
2023-02-14T01:39:56.822Z,1031.12
2023-02-14T01:40:57.120Z,1031.12
2023-02-14T01:41:56.836Z,1031.14
2023-02-14T01:42:56.840Z,1031.13
2023-02-14T01:43:56.855Z,1031.12
2023-02-14T01:44:56.869Z,1031.05
2023-02-14T01:45:56.948Z,1031.08
2023-02-14T01:46:56.854Z,1031.12
2023-02-14T01:47:56.866Z,1031.11
2023-02-14T01:48:56.877Z,1031.12
2023-02-14T01:49:56.873Z,1031.11
2023-02-14T01:50:57.230Z,1031.08
2023-02-14T01:51:56.881Z,1031.08
2023-02-14T01:52:56.882Z,1031.05
2023-02-14T01:53:56.893Z,1031.06
2023-02-14T01:54:56.896Z,1031.11
2023-02-14T01:55:56.899Z,1031.10
2023-02-14T01:56:56.898Z,1031.10
2023-02-14T01:57:56.905Z,1031.07
2023-02-14T01:58:56.910Z,1031.06
2023-02-14T01:59:56.913Z,1031.04
2023-02-14T02:00:57.325Z,1031.07
2023-02-14T02:01:56.987Z,1031.03
2023-02-14T02:02:56.923Z,1031.04
2023-02-14T02:03:56.937Z,1031.01
2023-02-14T02:04:56.927Z,1031.02
2023-02-14T02:05:56.929Z,1031.02
2023-02-14T02:06:56.931Z,1030.99
2023-02-14T02:07:56.949Z,1031.03
2023-02-14T02:08:56.938Z,1030.99
2023-02-14T02:09:56.950Z,1030.98
2023-02-14T02:10:57.198Z,1030.96
2023-02-14T02:11:56.957Z,1030.94
2023-02-14T02:12:56.958Z,1030.94
2023-02-14T02:13:56.964Z,1030.93
2023-02-14T02:14:56.963Z,1030.96
2023-02-14T02:15:56.966Z,1030.98
2023-02-14T02:16:57.054Z,1030.99
2023-02-14T02:17:56.976Z,1030.92
2023-02-14T02:18:56.978Z,1030.93
2023-02-14T02:19:56.986Z,1030.93
2023-02-14T02:20:57.131Z,1030.95
2023-02-14T02:21:56.981Z,1030.97
2023-02-14T02:22:56.998Z,1030.95
2023-02-14T02:23:56.988Z,1030.91
2023-02-14T02:24:57.001Z,1030.89
2023-02-14T02:25:56.995Z,1030.88
2023-02-14T02:26:57.006Z,1030.85
2023-02-14T02:27:57.009Z,1030.86
2023-02-14T02:28:57.014Z,1030.86
2023-02-14T02:29:57.116Z,1030.83
2023-02-14T02:30:57.551Z,1030.86
2023-02-14T02:31:57.137Z,1030.82
2023-02-14T02:32:57.037Z,1030.79
2023-02-14T02:33:57.021Z,1030.81
2023-02-14T02:34:57.025Z,1030.82
2023-02-14T02:35:57.027Z,1030.83
2023-02-14T02:36:57.031Z,1030.83
2023-02-14T02:37:57.038Z,1030.83
2023-02-14T02:38:57.036Z,1030.82
2023-02-14T02:39:57.044Z,1030.80
2023-02-14T02:40:57.296Z,1030.80
2023-02-14T02:41:57.048Z,1030.82
2023-02-14T02:42:57.057Z,1030.80
2023-02-14T02:43:57.062Z,1030.82
2023-02-14T02:44:57.059Z,1030.82
2023-02-14T02:45:57.131Z,1030.85
2023-02-14T02:46:57.071Z,1030.82
2023-02-14T02:47:57.068Z,1030.80
2023-02-14T02:48:57.107Z,1030.81
2023-02-14T02:49:57.084Z,1030.81
2023-02-14T02:50:57.486Z,1030.82
2023-02-14T02:51:57.081Z,1030.84
2023-02-14T02:52:57.096Z,1030.82
2023-02-14T02:53:57.084Z,1030.84
2023-02-14T02:54:57.097Z,1030.83
2023-02-14T02:55:57.102Z,1030.82
2023-02-14T02:56:57.096Z,1030.84
2023-02-14T02:57:57.101Z,1030.83
2023-02-14T02:58:57.107Z,1030.83
2023-02-14T02:59:57.105Z,1030.85
2023-02-14T03:00:57.345Z,1030.83
2023-02-14T03:01:57.119Z,1030.82
2023-02-14T03:02:57.118Z,1030.83
2023-02-14T03:03:57.117Z,1030.82
2023-02-14T03:04:57.233Z,1030.83
2023-02-14T03:05:57.124Z,1030.82
2023-02-14T03:06:57.136Z,1030.83
2023-02-14T03:07:57.130Z,1030.78
2023-02-14T03:08:57.135Z,1030.79
2023-02-14T03:09:57.140Z,1030.80
2023-02-14T03:10:57.366Z,1030.80
2023-02-14T03:11:57.143Z,1030.77
2023-02-14T03:12:57.154Z,1030.80
2023-02-14T03:13:57.158Z,1030.83
2023-02-14T03:14:57.159Z,1030.76
2023-02-14T03:15:57.218Z,1030.82
2023-02-14T03:16:57.171Z,1030.80
2023-02-14T03:17:57.170Z,1030.80
2023-02-14T03:18:57.174Z,1030.80
2023-02-14T03:19:57.174Z,1030.82
2023-02-14T03:20:57.307Z,1030.82
2023-02-14T03:21:57.182Z,1030.84
2023-02-14T03:22:57.183Z,1030.84
2023-02-14T03:23:57.183Z,1030.82
2023-02-14T03:24:57.184Z,1030.83
2023-02-14T03:25:57.199Z,1030.84
2023-02-14T03:26:57.190Z,1030.84
2023-02-14T03:27:57.196Z,1030.83
2023-02-14T03:28:57.196Z,1030.82
2023-02-14T03:29:57.271Z,1030.83
2023-02-14T03:30:57.475Z,1030.79
2023-02-14T03:31:57.433Z,1030.80
2023-02-14T03:32:57.213Z,1030.80
2023-02-14T03:33:57.211Z,1030.81
2023-02-14T03:34:57.222Z,1030.80
2023-02-14T03:35:57.218Z,1030.81
2023-02-14T03:36:57.250Z,1030.81
2023-02-14T03:37:57.224Z,1030.79
2023-02-14T03:38:57.237Z,1030.77
2023-02-14T03:39:57.229Z,1030.79
2023-02-14T03:40:57.560Z,1030.79
2023-02-14T03:41:57.243Z,1030.75
2023-02-14T03:42:57.245Z,1030.77
2023-02-14T03:43:57.251Z,1030.79
2023-02-14T03:44:57.304Z,1030.78
2023-02-14T03:45:57.282Z,1030.77
2023-02-14T03:46:57.258Z,1030.79
2023-02-14T03:47:57.252Z,1030.76
2023-02-14T03:48:57.268Z,1030.80
2023-02-14T03:49:57.265Z,1030.77
2023-02-14T03:50:57.533Z,1030.78
2023-02-14T03:51:57.270Z,1030.75
2023-02-14T03:52:57.307Z,1030.77
2023-02-14T03:53:57.280Z,1030.78
2023-02-14T03:54:57.274Z,1030.75
2023-02-14T03:55:57.281Z,1030.75
2023-02-14T03:56:57.286Z,1030.77
2023-02-14T03:57:57.289Z,1030.78
2023-02-14T03:58:57.292Z,1030.74
2023-02-14T03:59:57.285Z,1030.78
2023-02-14T04:00:57.515Z,1030.75
2023-02-14T04:01:57.412Z,1030.73
2023-02-14T04:02:57.294Z,1030.77
2023-02-14T04:03:57.395Z,1030.76
2023-02-14T04:04:57.307Z,1030.77
2023-02-14T04:05:57.312Z,1030.81
2023-02-14T04:06:57.309Z,1030.81
2023-02-14T04:07:57.319Z,1030.78
2023-02-14T04:08:57.337Z,1030.77
2023-02-14T04:09:57.316Z,1030.77
2023-02-14T04:10:57.615Z,1030.77
2023-02-14T04:11:57.320Z,1030.82
2023-02-14T04:12:57.327Z,1030.77
2023-02-14T04:13:57.332Z,1030.81
2023-02-14T04:14:57.330Z,1030.80
2023-02-14T04:15:57.408Z,1030.80
2023-02-14T04:16:57.344Z,1030.83
2023-02-14T04:17:57.345Z,1030.84
2023-02-14T04:18:57.353Z,1030.81
2023-02-14T04:19:57.367Z,1030.81
2023-02-14T04:20:57.661Z,1030.83
2023-02-14T04:21:57.349Z,1030.80
2023-02-14T04:22:57.359Z,1030.79
2023-02-14T04:23:57.354Z,1030.76
2023-02-14T04:24:57.431Z,1030.81
2023-02-14T04:25:57.367Z,1030.83
2023-02-14T04:26:57.364Z,1030.81
2023-02-14T04:27:57.381Z,1030.77
2023-02-14T04:28:57.368Z,1030.75
2023-02-14T04:29:57.411Z,1030.76
2023-02-14T04:30:57.664Z,1030.75
2023-02-14T04:31:57.465Z,1030.78
2023-02-14T04:32:57.381Z,1030.76
2023-02-14T04:33:57.381Z,1030.76
2023-02-14T04:34:57.387Z,1030.74
2023-02-14T04:35:57.389Z,1030.69
2023-02-14T04:36:57.398Z,1030.74
2023-02-14T04:37:57.399Z,1030.71
2023-02-14T04:38:57.397Z,1030.71
2023-02-14T04:39:57.390Z,1030.76
2023-02-14T04:40:57.719Z,1030.78
2023-02-14T04:41:57.400Z,1030.72
2023-02-14T04:42:57.406Z,1030.72
2023-02-14T04:43:57.409Z,1030.68
2023-02-14T04:44:57.411Z,1030.66
2023-02-14T04:45:57.412Z,1030.67
2023-02-14T04:46:57.409Z,1030.63
2023-02-14T04:47:57.430Z,1030.64
2023-02-14T04:48:57.425Z,1030.66
2023-02-14T04:49:57.427Z,1030.64
2023-02-14T04:50:57.578Z,1030.64
2023-02-14T04:51:57.424Z,1030.64
2023-02-14T04:52:57.437Z,1030.62
2023-02-14T04:53:57.426Z,1030.61
2023-02-14T04:54:57.432Z,1030.60
2023-02-14T04:55:57.436Z,1030.56
2023-02-14T04:56:57.456Z,1030.54
2023-02-14T04:57:57.440Z,1030.50
2023-02-14T04:58:57.441Z,1030.53
2023-02-14T04:59:57.439Z,1030.55
2023-02-14T05:00:57.707Z,1030.56
2023-02-14T05:01:57.544Z,1030.55
2023-02-14T05:02:57.441Z,1030.57
2023-02-14T05:03:57.443Z,1030.60
2023-02-14T05:04:57.446Z,1030.61
2023-02-14T05:05:57.463Z,1030.61
2023-02-14T05:06:57.453Z,1030.63
2023-02-14T05:07:57.463Z,1030.58
2023-02-14T05:08:57.458Z,1030.56
2023-02-14T05:09:57.455Z,1030.53
2023-02-14T05:10:57.727Z,1030.57
2023-02-14T05:11:57.466Z,1030.59
2023-02-14T05:12:57.484Z,1030.57
2023-02-14T05:13:57.473Z,1030.60
2023-02-14T05:14:57.479Z,1030.57
2023-02-14T05:15:57.549Z,1030.54
2023-02-14T05:16:57.477Z,1030.57
2023-02-14T05:17:57.480Z,1030.58
2023-02-14T05:18:57.481Z,1030.59
2023-02-14T05:19:57.482Z,1030.60
2023-02-14T05:20:58.066Z,1030.59
2023-02-14T05:21:57.479Z,1030.53
2023-02-14T05:22:57.483Z,1030.59
2023-02-14T05:23:57.492Z,1030.58
2023-02-14T05:24:57.498Z,1030.61
2023-02-14T05:25:57.494Z,1030.60
2023-02-14T05:26:57.497Z,1030.61
2023-02-14T05:27:57.490Z,1030.59
2023-02-14T05:28:57.516Z,1030.57
2023-02-14T05:29:57.529Z,1030.55
2023-02-14T05:30:57.611Z,1030.55
2023-02-14T05:31:57.574Z,1030.56
2023-02-14T05:32:57.503Z,1030.55
2023-02-14T05:33:57.505Z,1030.50
2023-02-14T05:34:58.419Z,1030.50
2023-02-14T05:35:57.507Z,1030.50
2023-02-14T05:36:57.516Z,1030.50
2023-02-14T05:37:57.520Z,1030.56
2023-02-14T05:38:57.521Z,1030.53
2023-02-14T05:39:57.530Z,1030.55
2023-02-14T05:40:57.807Z,1030.53
2023-02-14T05:41:59.338Z,1030.51
2023-02-14T05:42:57.528Z,1030.54
2023-02-14T05:43:57.524Z,1030.49
2023-02-14T05:44:57.552Z,1030.54
2023-02-14T05:45:57.652Z,1030.48
2023-02-14T05:46:57.538Z,1030.57
2023-02-14T05:47:57.543Z,1030.52
2023-02-14T05:48:57.542Z,1030.53
2023-02-14T05:49:57.540Z,1030.54
2023-02-14T05:50:58.010Z,1030.54
2023-02-14T05:51:57.555Z,1030.59
2023-02-14T05:52:57.554Z,1030.57
2023-02-14T05:53:57.554Z,1030.56
2023-02-14T05:54:57.560Z,1030.58
2023-02-14T05:55:57.565Z,1030.53
2023-02-14T05:56:57.563Z,1030.54
2023-02-14T05:57:57.564Z,1030.51
2023-02-14T05:58:57.579Z,1030.50
2023-02-14T05:59:57.570Z,1030.55
2023-02-14T06:00:57.820Z,1030.53
2023-02-14T06:01:57.610Z,1030.53
2023-02-14T06:02:57.566Z,1030.55
2023-02-14T06:03:57.571Z,1030.53
2023-02-14T06:04:57.575Z,1030.48
2023-02-14T06:05:57.585Z,1030.51
2023-02-14T06:06:57.585Z,1030.56
2023-02-14T06:07:57.588Z,1030.53
2023-02-14T06:08:57.584Z,1030.56
2023-02-14T06:09:57.592Z,1030.54
2023-02-14T06:10:57.817Z,1030.55
2023-02-14T06:11:57.587Z,1030.58
2023-02-14T06:12:57.600Z,1030.57
2023-02-14T06:13:57.596Z,1030.59
2023-02-14T06:14:57.594Z,1030.58
2023-02-14T06:15:57.596Z,1030.58
2023-02-14T06:16:57.686Z,1030.62
2023-02-14T06:17:57.603Z,1030.61
2023-02-14T06:18:57.608Z,1030.60
2023-02-14T06:19:57.610Z,1030.58
2023-02-14T06:20:58.115Z,1030.55
2023-02-14T06:21:57.614Z,1030.54
2023-02-14T06:22:57.609Z,1030.56
2023-02-14T06:23:57.621Z,1030.57
2023-02-14T06:24:57.624Z,1030.56
2023-02-14T06:25:57.615Z,1030.57
2023-02-14T06:26:57.619Z,1030.50
2023-02-14T06:27:57.644Z,1030.51
2023-02-14T06:28:57.622Z,1030.54
2023-02-14T06:29:57.693Z,1030.55
2023-02-14T06:30:57.907Z,1030.60
2023-02-14T06:31:57.811Z,1030.62
2023-02-14T06:32:57.661Z,1030.60
2023-02-14T06:33:57.627Z,1030.62
2023-02-14T06:34:57.645Z,1030.58
2023-02-14T06:35:57.635Z,1030.60
2023-02-14T06:36:57.642Z,1030.66
2023-02-14T06:37:57.638Z,1030.61
2023-02-14T06:38:57.636Z,1030.62
2023-02-14T06:39:57.643Z,1030.67
2023-02-14T06:41:00.362Z,1030.66
2023-02-14T06:41:57.645Z,1030.66
2023-02-14T06:42:57.653Z,1030.68
2023-02-14T06:43:57.649Z,1030.71
2023-02-14T06:44:57.652Z,1030.73
2023-02-14T06:45:57.739Z,1030.73
2023-02-14T06:46:57.657Z,1030.76
2023-02-14T06:47:57.664Z,1030.77
2023-02-14T06:48:57.682Z,1030.75
2023-02-14T06:49:57.669Z,1030.75
2023-02-14T06:50:58.249Z,1030.77
2023-02-14T06:51:57.670Z,1030.78
2023-02-14T06:52:57.673Z,1030.76
2023-02-14T06:53:57.675Z,1030.73
2023-02-14T06:54:57.671Z,1030.72
2023-02-14T06:55:57.678Z,1030.68
2023-02-14T06:56:57.681Z,1030.70
2023-02-14T06:57:57.684Z,1030.69
2023-02-14T06:58:57.680Z,1030.69
2023-02-14T06:59:57.690Z,1030.70
2023-02-14T07:00:58.001Z,1030.75
2023-02-14T07:01:57.685Z,1030.74
2023-02-14T07:02:57.795Z,1030.73
2023-02-14T07:03:57.698Z,1030.71
2023-02-14T07:04:57.718Z,1030.69
2023-02-14T07:05:57.697Z,1030.73
2023-02-14T07:06:57.696Z,1030.70
2023-02-14T07:07:57.698Z,1030.73
2023-02-14T07:08:57.701Z,1030.73
2023-02-14T07:09:57.700Z,1030.73
2023-02-14T07:10:58.237Z,1030.72
2023-02-14T07:11:57.715Z,1030.75
2023-02-14T07:12:57.707Z,1030.78
2023-02-14T07:13:57.723Z,1030.75
2023-02-14T07:14:57.710Z,1030.76
2023-02-14T07:15:57.760Z,1030.74
2023-02-14T07:16:57.723Z,1030.75
2023-02-14T07:17:57.722Z,1030.72
2023-02-14T07:18:57.727Z,1030.71
2023-02-14T07:19:57.731Z,1030.74
2023-02-14T07:20:58.261Z,1030.76
2023-02-14T07:21:57.743Z,1030.72
2023-02-14T07:22:57.734Z,1030.70
2023-02-14T07:23:57.740Z,1030.66
2023-02-14T07:24:57.743Z,1030.72
2023-02-14T07:25:57.744Z,1030.70
2023-02-14T07:26:57.736Z,1030.63
2023-02-14T07:27:57.748Z,1030.69
2023-02-14T07:28:57.750Z,1030.68
2023-02-14T07:29:57.780Z,1030.68
2023-02-14T07:30:57.984Z,1030.70
2023-02-14T07:31:57.880Z,1030.70
2023-02-14T07:32:57.751Z,1030.69
2023-02-14T07:33:57.753Z,1030.68
2023-02-14T07:34:57.754Z,1030.71
2023-02-14T07:35:57.763Z,1030.71
2023-02-14T07:36:57.781Z,1030.74
2023-02-14T07:37:57.770Z,1030.71
2023-02-14T07:38:57.780Z,1030.72
2023-02-14T07:39:57.768Z,1030.73
2023-02-14T07:40:58.106Z,1030.74
2023-02-14T07:41:57.770Z,1030.74
2023-02-14T07:42:57.781Z,1030.72
2023-02-14T07:43:57.781Z,1030.71
2023-02-14T07:44:57.787Z,1030.70
2023-02-14T07:45:57.844Z,1030.75
2023-02-14T07:46:57.785Z,1030.78
2023-02-14T07:47:57.784Z,1030.73
2023-02-14T07:48:57.793Z,1030.71
2023-02-14T07:49:57.797Z,1030.69
2023-02-14T07:50:58.293Z,1030.64
2023-02-14T07:51:57.800Z,1030.72
2023-02-14T07:52:57.891Z,1030.64
2023-02-14T07:53:57.806Z,1030.67
2023-02-14T07:54:57.806Z,1030.69
2023-02-14T07:55:57.801Z,1030.72
2023-02-14T07:56:57.835Z,1030.67
2023-02-14T07:57:57.810Z,1030.69
2023-02-14T07:58:57.808Z,1030.68
2023-02-14T07:59:57.821Z,1030.67
2023-02-14T08:00:58.349Z,1030.70
2023-02-14T08:01:57.926Z,1030.68
2023-02-14T08:02:57.823Z,1030.71
2023-02-14T08:03:57.833Z,1030.74
2023-02-14T08:04:57.912Z,1030.73
2023-02-14T08:05:57.849Z,1030.71
2023-02-14T08:06:57.860Z,1030.71
2023-02-14T08:07:57.829Z,1030.71
2023-02-14T08:08:57.860Z,1030.70
2023-02-14T08:09:57.849Z,1030.68
2023-02-14T08:10:58.114Z,1030.73
2023-02-14T08:11:57.835Z,1030.70
2023-02-14T08:12:57.841Z,1030.66
2023-02-14T08:13:57.839Z,1030.66
2023-02-14T08:14:57.850Z,1030.62
2023-02-14T08:15:57.911Z,1030.65
2023-02-14T08:16:57.851Z,1030.63
2023-02-14T08:17:57.862Z,1030.61
2023-02-14T08:18:57.853Z,1030.63
2023-02-14T08:19:57.862Z,1030.64
2023-02-14T08:20:58.192Z,1030.64
2023-02-14T08:21:57.868Z,1030.59
2023-02-14T08:22:57.867Z,1030.66
2023-02-14T08:23:57.869Z,1030.68
2023-02-14T08:24:57.891Z,1030.70
2023-02-14T08:25:57.870Z,1030.63
2023-02-14T08:26:57.874Z,1030.66
2023-02-14T08:27:57.873Z,1030.67
2023-02-14T08:28:57.875Z,1030.68
2023-02-14T08:29:57.956Z,1030.70
2023-02-14T08:30:58.304Z,1030.66
2023-02-14T08:31:57.992Z,1030.65
2023-02-14T08:32:57.928Z,1030.66
2023-02-14T08:33:57.897Z,1030.66
2023-02-14T08:34:57.889Z,1030.69
2023-02-14T08:35:57.906Z,1030.69
2023-02-14T08:36:57.898Z,1030.74
2023-02-14T08:37:57.917Z,1030.66
2023-02-14T08:38:57.997Z,1030.69
2023-02-14T08:39:57.913Z,1030.68
2023-02-14T08:40:58.253Z,1030.68
2023-02-14T08:41:57.909Z,1030.68
2023-02-14T08:42:57.912Z,1030.70
2023-02-14T08:43:57.916Z,1030.69
2023-02-14T08:44:57.918Z,1030.66
2023-02-14T08:45:58.454Z,1030.70
2023-02-14T08:46:57.998Z,1030.65
2023-02-14T08:47:57.935Z,1030.63
2023-02-14T08:48:57.940Z,1030.64
2023-02-14T08:49:57.940Z,1030.66
2023-02-14T08:50:58.211Z,1030.67
2023-02-14T08:51:57.947Z,1030.69
2023-02-14T08:52:58.002Z,1030.65
2023-02-14T08:53:58.009Z,1030.71
2023-02-14T08:54:57.953Z,1030.72
2023-02-14T08:55:58.434Z,1030.67
2023-02-14T08:56:57.987Z,1030.69
2023-02-14T08:57:58.011Z,1030.66
2023-02-14T08:58:57.962Z,1030.65
2023-02-14T08:59:57.983Z,1030.67
2023-02-14T09:00:58.421Z,1030.66
2023-02-14T09:01:57.985Z,1030.65
2023-02-14T09:02:57.975Z,1030.65
2023-02-14T09:03:58.115Z,1030.67
2023-02-14T09:04:58.003Z,1030.65
2023-02-14T09:05:57.992Z,1030.66
2023-02-14T09:06:58.003Z,1030.63
2023-02-14T09:07:58.028Z,1030.65
2023-02-14T09:08:58.014Z,1030.63
2023-02-14T09:09:58.019Z,1030.61
2023-02-14T09:10:58.550Z,1030.62
2023-02-14T09:11:58.008Z,1030.57
2023-02-14T09:12:58.044Z,1030.56
2023-02-14T09:13:58.015Z,1030.57
2023-02-14T09:14:58.057Z,1030.61
2023-02-14T09:15:58.165Z,1030.59
2023-02-14T09:16:58.125Z,1030.59
2023-02-14T09:17:58.035Z,1030.63
2023-02-14T09:18:58.029Z,1030.60
2023-02-14T09:19:58.027Z,1030.62
2023-02-14T09:20:58.407Z,1030.61
2023-02-14T09:21:58.057Z,1030.61
2023-02-14T09:22:58.049Z,1030.65
2023-02-14T09:23:58.040Z,1030.62
2023-02-14T09:24:58.049Z,1030.68
2023-02-14T09:25:58.055Z,1030.68
2023-02-14T09:26:58.049Z,1030.67
2023-02-14T09:27:58.060Z,1030.71
2023-02-14T09:28:58.082Z,1030.66
2023-02-14T09:29:58.121Z,1030.66
2023-02-14T09:30:58.432Z,1030.63
2023-02-14T09:31:58.206Z,1030.65
2023-02-14T09:32:58.086Z,1030.67
2023-02-14T09:33:58.076Z,1030.66
2023-02-14T09:34:58.096Z,1030.66
2023-02-14T09:35:58.089Z,1030.64
2023-02-14T09:36:58.097Z,1030.70
2023-02-14T09:37:58.097Z,1030.63
2023-02-14T09:38:58.097Z,1030.66
2023-02-14T09:39:58.103Z,1030.65
2023-02-14T09:40:58.485Z,1030.58
2023-02-14T09:41:58.112Z,1030.62
2023-02-14T09:43:00.084Z,1030.59
2023-02-14T09:43:58.117Z,1030.57
2023-02-14T09:44:58.137Z,1030.58
2023-02-14T09:45:58.168Z,1030.59
2023-02-14T09:46:58.127Z,1030.57
2023-02-14T09:47:58.134Z,1030.56
2023-02-14T09:48:58.164Z,1030.58
2023-02-14T09:49:58.213Z,1030.58
2023-02-14T09:50:58.495Z,1030.56
2023-02-14T09:51:58.148Z,1030.54
2023-02-14T09:52:58.161Z,1030.57
2023-02-14T09:53:58.148Z,1030.59
2023-02-14T09:54:58.165Z,1030.61
2023-02-14T09:55:58.165Z,1030.63
2023-02-14T09:56:58.174Z,1030.64
2023-02-14T09:57:58.172Z,1030.65
2023-02-14T09:58:58.170Z,1030.63
2023-02-14T09:59:58.175Z,1030.63
2023-02-14T10:00:58.491Z,1030.67
2023-02-14T10:01:58.335Z,1030.69
2023-02-14T10:02:58.194Z,1030.68
2023-02-14T10:03:58.202Z,1030.68
2023-02-14T10:04:58.191Z,1030.75
2023-02-14T10:05:58.199Z,1030.71
2023-02-14T10:06:58.201Z,1030.78
2023-02-14T10:07:58.220Z,1030.76
2023-02-14T10:08:58.209Z,1030.75
2023-02-14T10:09:58.216Z,1030.74
2023-02-14T10:10:58.570Z,1030.73
2023-02-14T10:11:58.236Z,1030.73
2023-02-14T10:12:58.225Z,1030.69
2023-02-14T10:13:58.232Z,1030.72
2023-02-14T10:14:58.241Z,1030.71
2023-02-14T10:15:58.243Z,1030.74
2023-02-14T10:16:58.351Z,1030.71
2023-02-14T10:17:58.260Z,1030.74
2023-02-14T10:18:58.252Z,1030.73
2023-02-14T10:19:58.288Z,1030.76
2023-02-14T10:20:58.791Z,1030.76
2023-02-14T10:21:58.270Z,1030.73
2023-02-14T10:22:58.283Z,1030.68
2023-02-14T10:23:58.274Z,1030.71
2023-02-14T10:24:58.283Z,1030.70
2023-02-14T10:25:58.288Z,1030.69
2023-02-14T10:26:58.288Z,1030.67
2023-02-14T10:27:58.320Z,1030.65
2023-02-14T10:28:58.303Z,1030.63
2023-02-14T10:29:58.351Z,1030.66
2023-02-14T10:30:58.550Z,1030.69
2023-02-14T10:31:58.396Z,1030.68
2023-02-14T10:32:58.329Z,1030.69
2023-02-14T10:33:58.322Z,1030.65
2023-02-14T10:34:58.335Z,1030.63
2023-02-14T10:35:58.340Z,1030.67
2023-02-14T10:36:58.343Z,1030.65
2023-02-14T10:37:58.351Z,1030.59
2023-02-14T10:38:58.350Z,1030.59
2023-02-14T10:39:58.353Z,1030.61
2023-02-14T10:40:58.838Z,1030.63
2023-02-14T10:41:58.370Z,1030.62
2023-02-14T10:42:58.370Z,1030.55
2023-02-14T10:43:58.395Z,1030.59
2023-02-14T10:44:58.385Z,1030.55
2023-02-14T10:45:58.449Z,1030.55
2023-02-14T10:46:58.395Z,1030.54
2023-02-14T10:47:58.405Z,1030.57
2023-02-14T10:48:58.401Z,1030.55
2023-02-14T10:49:58.407Z,1030.52
2023-02-14T10:50:58.785Z,1030.50
2023-02-14T10:51:58.419Z,1030.53
2023-02-14T10:52:58.413Z,1030.51
2023-02-14T10:53:58.431Z,1030.50
2023-02-14T10:54:58.424Z,1030.43
2023-02-14T10:55:58.433Z,1030.47
2023-02-14T10:56:58.735Z,1030.46
2023-02-14T10:57:58.448Z,1030.46
2023-02-14T10:58:58.442Z,1030.39
2023-02-14T10:59:58.500Z,1030.39
2023-02-14T11:00:59.029Z,1030.45
2023-02-14T11:01:58.461Z,1030.35
2023-02-14T11:02:58.472Z,1030.37
2023-02-14T11:03:58.624Z,1030.37
2023-02-14T11:04:58.484Z,1030.39
2023-02-14T11:05:58.491Z,1030.36
2023-02-14T11:06:58.495Z,1030.34
2023-02-14T11:07:58.499Z,1030.30
2023-02-14T11:08:58.511Z,1030.31
2023-02-14T11:09:58.518Z,1030.32
2023-02-14T11:10:58.835Z,1030.32
2023-02-14T11:11:58.524Z,1030.28
2023-02-14T11:12:58.546Z,1030.26
2023-02-14T11:13:58.536Z,1030.27
2023-02-14T11:14:58.541Z,1030.25
2023-02-14T11:15:58.871Z,1030.24
2023-02-14T11:16:58.733Z,1030.26
2023-02-14T11:17:58.556Z,1030.24
2023-02-14T11:18:58.564Z,1030.21
2023-02-14T11:19:58.568Z,1030.22
2023-02-14T11:20:58.577Z,1030.15
2023-02-14T11:21:58.580Z,1030.17
2023-02-14T11:22:58.582Z,1030.18
2023-02-14T11:23:58.590Z,1030.14
2023-02-14T11:24:58.606Z,1030.14
2023-02-14T11:25:58.901Z,1030.06
2023-02-14T11:28:11.212Z,1030.06
2023-02-14T11:29:11.216Z,1030.07
2023-02-14T11:30:11.254Z,1030.02
2023-02-14T11:31:11.324Z,1030.03
2023-02-14T11:32:11.232Z,1030.03
2023-02-14T11:33:11.248Z,1030.02
2023-02-14T11:34:11.259Z,1030.01
2023-02-14T11:35:11.262Z,1030.01
2023-02-14T11:36:11.270Z,1030.02
2023-02-14T11:37:11.277Z,1029.96
2023-02-14T11:38:11.282Z,1029.91
2023-02-14T11:39:11.288Z,1029.82
2023-02-14T11:40:11.301Z,1029.86
2023-02-14T11:41:11.306Z,1029.81
2023-02-14T11:42:11.310Z,1029.79
2023-02-14T11:43:14.412Z,1029.75
2023-02-14T11:44:11.333Z,1029.79
2023-02-14T11:45:11.336Z,1029.73
2023-02-14T11:55:30.485Z,1029.50
2023-02-14T11:56:30.464Z,1029.48
2023-02-14T14:23:01.849Z,1027.98
2023-02-14T14:24:01.844Z,1028.01
2023-02-14T14:25:01.863Z,1028.00
2023-02-14T14:26:02.176Z,1028.05
2023-02-14T14:27:01.862Z,1028.00
2023-02-14T14:28:01.898Z,1027.96
2023-02-14T14:29:01.889Z,1027.93
2023-02-14T14:30:01.956Z,1027.92
2023-02-14T14:31:01.997Z,1027.93
2023-02-14T14:32:01.975Z,1027.88
2023-02-14T14:33:01.915Z,1027.93
2023-02-14T14:34:01.925Z,1027.94
2023-02-14T14:35:01.947Z,1027.93
2023-02-14T14:36:02.378Z,1027.93
2023-02-14T14:37:01.956Z,1027.89
2023-02-14T14:38:01.965Z,1027.92
2023-02-14T14:39:01.995Z,1027.92
2023-02-14T14:40:01.982Z,1027.90
2023-02-14T14:41:02.000Z,1027.86
2023-02-14T14:42:01.997Z,1027.84